sensor_id;sensor_type;location;lat;lon;timestamp;pressure;altitude;pressure_sealevel;temperature;humidity
5522;BME280;2783;48.730;8.006;2023-04-07T00:02:05;100101.22;;;10.89;85.35
5522;BME280;2783;48.730;8.006;2023-04-07T00:04:30;100100.25;;;10.92;85.19
5522;BME280;2783;48.730;8.006;2023-04-07T00:06:56;100101.16;;;10.91;85.33
5522;BME280;2783;48.730;8.006;2023-04-07T00:09:21;100094.25;;;10.85;84.93
5522;BME280;2783;48.730;8.006;2023-04-07T00:11:46;100096.88;;;10.87;85.82
5522;BME280;2783;48.730;8.006;2023-04-07T00:14:12;100093.59;;;10.79;86.40
5522;BME280;2783;48.730;8.006;2023-04-07T00:16:38;100085.03;;;10.69;87.29
5522;BME280;2783;48.730;8.006;2023-04-07T00:19:03;100087.59;;;10.72;87.75
5522;BME280;2783;48.730;8.006;2023-04-07T00:21:28;100080.63;;;10.68;87.95
5522;BME280;2783;48.730;8.006;2023-04-07T00:23:53;100079.75;;;10.68;88.41
5522;BME280;2783;48.730;8.006;2023-04-07T00:26:19;100085.06;;;10.68;88.39
5522;BME280;2783;48.730;8.006;2023-04-07T00:28:45;100086.03;;;10.65;89.73
5522;BME280;2783;48.730;8.006;2023-04-07T00:31:10;100070.88;;;10.69;89.23
5522;BME280;2783;48.730;8.006;2023-04-07T00:33:35;100074.63;;;10.61;89.38
5522;BME280;2783;48.730;8.006;2023-04-07T00:36:00;100065.91;;;10.56;90.06
5522;BME280;2783;48.730;8.006;2023-04-07T00:38:26;100066.03;;;10.53;90.80
5522;BME280;2783;48.730;8.006;2023-04-07T00:40:58;100060.59;;;10.56;91.15
5522;BME280;2783;48.730;8.006;2023-04-07T00:43:23;100057.22;;;10.51;90.74
5522;BME280;2783;48.730;8.006;2023-04-07T00:45:49;100052.06;;;10.47;90.94
5522;BME280;2783;48.730;8.006;2023-04-07T00:48:15;100046.78;;;10.45;91.58
5522;BME280;2783;48.730;8.006;2023-04-07T00:50:40;100046.69;;;10.48;91.56
5522;BME280;2783;48.730;8.006;2023-04-07T00:53:05;100045.81;;;10.48;90.59
5522;BME280;2783;48.730;8.006;2023-04-07T00:55:31;100040.38;;;10.51;91.04
5522;BME280;2783;48.730;8.006;2023-04-07T00:57:56;100034.28;;;10.49;90.43
5522;BME280;2783;48.730;8.006;2023-04-07T01:00:21;100030.94;;;10.42;91.20
5522;BME280;2783;48.730;8.006;2023-04-07T01:02:56;100028.00;;;10.50;90.78
5522;BME280;2783;48.730;8.006;2023-04-07T01:05:38;100021.75;;;10.51;90.23
5522;BME280;2783;48.730;8.006;2023-04-07T01:13:27;100017.47;;;10.47;91.75
5522;BME280;2783;48.730;8.006;2023-04-07T01:15:55;100020.97;;;10.49;90.40
5522;BME280;2783;48.730;8.006;2023-04-07T01:18:28;100012.00;;;10.51;91.29
5522;BME280;2783;48.730;8.006;2023-04-07T01:20:55;100016.31;;;10.55;90.61
5522;BME280;2783;48.730;8.006;2023-04-07T01:26:29;100004.75;;;10.56;90.12
5522;BME280;2783;48.730;8.006;2023-04-07T01:28:56;100007.50;;;10.53;89.27
5522;BME280;2783;48.730;8.006;2023-04-07T01:31:28;100006.75;;;10.50;89.26
5522;BME280;2783;48.730;8.006;2023-04-07T01:33:54;100014.88;;;10.45;89.48
5522;BME280;2783;48.730;8.006;2023-04-07T01:36:21;100013.94;;;10.46;89.53
5522;BME280;2783;48.730;8.006;2023-04-07T01:38:47;100002.47;;;10.46;89.53
5522;BME280;2783;48.730;8.006;2023-04-07T01:41:13;99995.53;;;10.40;88.95
5522;BME280;2783;48.730;8.006;2023-04-07T01:43:40;100007.13;;;10.38;88.99
5522;BME280;2783;48.730;8.006;2023-04-07T01:46:05;100008.78;;;10.42;89.68
5522;BME280;2783;48.730;8.006;2023-04-07T01:48:31;100008.00;;;10.38;89.74
5522;BME280;2783;48.730;8.006;2023-04-07T01:50:57;100007.91;;;10.41;89.47
5522;BME280;2783;48.730;8.006;2023-04-07T01:53:23;100011.28;;;10.46;89.94
5522;BME280;2783;48.730;8.006;2023-04-07T01:55:49;100003.25;;;10.48;90.01
5522;BME280;2783;48.730;8.006;2023-04-07T01:58:16;100002.19;;;10.53;90.09
5522;BME280;2783;48.730;8.006;2023-04-07T02:00:41;100006.63;;;10.53;89.54
5522;BME280;2783;48.730;8.006;2023-04-07T02:03:10;99995.22;;;10.49;89.20
5522;BME280;2783;48.730;8.006;2023-04-07T02:05:44;100002.59;;;10.41;88.73
5522;BME280;2783;48.730;8.006;2023-04-07T02:08:10;100000.97;;;10.37;89.29
5522;BME280;2783;48.730;8.006;2023-04-07T02:10:36;100000.75;;;10.43;88.63
5522;BME280;2783;48.730;8.006;2023-04-07T02:13:03;99999.88;;;10.43;88.55
5522;BME280;2783;48.730;8.006;2023-04-07T02:15:29;99995.53;;;10.40;89.21
5522;BME280;2783;48.730;8.006;2023-04-07T02:17:55;99997.09;;;10.47;89.09
5522;BME280;2783;48.730;8.006;2023-04-07T02:20:21;99986.28;;;10.52;89.41
5522;BME280;2783;48.730;8.006;2023-04-07T02:22:46;99995.88;;;10.56;88.36
5522;BME280;2783;48.730;8.006;2023-04-07T02:25:22;99988.69;;;10.59;89.08
5522;BME280;2783;48.730;8.006;2023-04-07T02:27:48;99980.59;;;10.62;88.90
5522;BME280;2783;48.730;8.006;2023-04-07T02:30:14;99977.16;;;10.60;88.73
5522;BME280;2783;48.730;8.006;2023-04-07T02:32:39;99986.84;;;10.61;88.24
5522;BME280;2783;48.730;8.006;2023-04-07T02:35:05;99983.31;;;10.61;88.41
5522;BME280;2783;48.730;8.006;2023-04-07T02:37:30;99977.19;;;10.59;87.92
5522;BME280;2783;48.730;8.006;2023-04-07T02:39:56;99986.03;;;10.59;88.41
5522;BME280;2783;48.730;8.006;2023-04-07T02:42:21;99978.09;;;10.58;88.36
5522;BME280;2783;48.730;8.006;2023-04-07T02:44:46;99969.16;;;10.60;87.80
5522;BME280;2783;48.730;8.006;2023-04-07T02:47:11;99969.34;;;10.54;87.69
5522;BME280;2783;48.730;8.006;2023-04-07T02:49:37;99969.28;;;10.56;86.56
5522;BME280;2783;48.730;8.006;2023-04-07T02:52:02;99963.97;;;10.56;86.44
5522;BME280;2783;48.730;8.006;2023-04-07T02:54:27;99965.75;;;10.57;86.87
5522;BME280;2783;48.730;8.006;2023-04-07T02:56:52;99965.91;;;10.52;87.50
5522;BME280;2783;48.730;8.006;2023-04-07T02:59:18;99964.19;;;10.50;87.01
5522;BME280;2783;48.730;8.006;2023-04-07T03:01:43;99956.28;;;10.48;86.35
5522;BME280;2783;48.730;8.006;2023-04-07T03:04:08;99952.69;;;10.49;87.20
5522;BME280;2783;48.730;8.006;2023-04-07T03:06:34;99948.28;;;10.48;87.73
5522;BME280;2783;48.730;8.006;2023-04-07T03:08:59;99938.66;;;10.44;87.47
5522;BME280;2783;48.730;8.006;2023-04-07T03:11:25;99938.81;;;10.40;87.76
5522;BME280;2783;48.730;8.006;2023-04-07T03:13:50;99944.34;;;10.34;87.70
5522;BME280;2783;48.730;8.006;2023-04-07T03:16:15;99949.91;;;10.26;87.95
5522;BME280;2783;48.730;8.006;2023-04-07T03:18:40;99957.25;;;10.18;88.80
5522;BME280;2783;48.730;8.006;2023-04-07T03:21:06;99965.44;;;10.12;88.79
5522;BME280;2783;48.730;8.006;2023-04-07T03:23:31;99954.59;;;10.18;88.81
5522;BME280;2783;48.730;8.006;2023-04-07T03:25:56;99951.94;;;10.18;89.61
5522;BME280;2783;48.730;8.006;2023-04-07T03:28:22;99953.59;;;10.22;89.58
5522;BME280;2783;48.730;8.006;2023-04-07T03:30:47;99956.97;;;10.27;89.01
5522;BME280;2783;48.730;8.006;2023-04-07T03:33:12;99952.53;;;10.28;88.58
5522;BME280;2783;48.730;8.006;2023-04-07T03:35:38;99954.22;;;10.30;87.65
5522;BME280;2783;48.730;8.006;2023-04-07T03:38:03;99955.03;;;10.32;87.99
5522;BME280;2783;48.730;8.006;2023-04-07T03:40:28;99954.94;;;10.35;87.26
5522;BME280;2783;48.730;8.006;2023-04-07T03:42:54;99954.06;;;10.35;86.89
5522;BME280;2783;48.730;8.006;2023-04-07T03:45:19;99961.88;;;10.39;86.72
5522;BME280;2783;48.730;8.006;2023-04-07T03:47:44;99959.13;;;10.42;85.91
5522;BME280;2783;48.730;8.006;2023-04-07T03:50:10;99952.88;;;10.43;86.76
5522;BME280;2783;48.730;8.006;2023-04-07T03:52:35;99966.97;;;10.47;85.95
5522;BME280;2783;48.730;8.006;2023-04-07T03:55:00;99957.19;;;10.47;86.27
5522;BME280;2783;48.730;8.006;2023-04-07T03:57:26;99956.22;;;10.50;85.75
5522;BME280;2783;48.730;8.006;2023-04-07T03:59:51;99956.16;;;10.51;86.17
5522;BME280;2783;48.730;8.006;2023-04-07T04:02:17;99952.69;;;10.49;85.42
5522;BME280;2783;48.730;8.006;2023-04-07T04:04:42;99947.34;;;10.49;85.96
5522;BME280;2783;48.730;8.006;2023-04-07T04:07:07;99946.56;;;10.47;85.56
5522;BME280;2783;48.730;8.006;2023-04-07T04:09:32;99951.06;;;10.45;85.32
5522;BME280;2783;48.730;8.006;2023-04-07T04:11:58;99953.59;;;10.48;84.18
5522;BME280;2783;48.730;8.006;2023-04-07T04:14:23;99946.47;;;10.50;84.05
5522;BME280;2783;48.730;8.006;2023-04-07T04:16:48;99950.84;;;10.51;84.97
5522;BME280;2783;48.730;8.006;2023-04-07T04:19:13;99943.69;;;10.53;85.05
5522;BME280;2783;48.730;8.006;2023-04-07T04:21:39;99949.88;;;10.54;84.17
5522;BME280;2783;48.730;8.006;2023-04-07T04:24:04;99940.97;;;10.55;84.74
5522;BME280;2783;48.730;8.006;2023-04-07T04:26:29;99948.06;;;10.54;84.01
5522;BME280;2783;48.730;8.006;2023-04-07T04:28:55;99953.41;;;10.54;85.17
5522;BME280;2783;48.730;8.006;2023-04-07T04:31:20;99943.63;;;10.55;84.26
5522;BME280;2783;48.730;8.006;2023-04-07T04:33:45;99941.84;;;10.55;84.43
5522;BME280;2783;48.730;8.006;2023-04-07T04:36:10;99944.56;;;10.54;84.13
5522;BME280;2783;48.730;8.006;2023-04-07T04:38:36;99944.75;;;10.48;84.87
5522;BME280;2783;48.730;8.006;2023-04-07T04:41:01;99941.31;;;10.46;84.83
5522;BME280;2783;48.730;8.006;2023-04-07T04:43:26;99945.75;;;10.45;84.79
5522;BME280;2783;48.730;8.006;2023-04-07T04:45:52;99945.75;;;10.45;84.95
5522;BME280;2783;48.730;8.006;2023-04-07T04:48:17;99943.03;;;10.47;85.21
5522;BME280;2783;48.730;8.006;2023-04-07T04:50:42;99942.16;;;10.46;86.50
5522;BME280;2783;48.730;8.006;2023-04-07T04:53:08;99938.66;;;10.44;86.70
5522;BME280;2783;48.730;8.006;2023-04-07T04:55:34;99938.66;;;10.44;87.20
5522;BME280;2783;48.730;8.006;2023-04-07T04:57:59;99948.50;;;10.42;86.63
5522;BME280;2783;48.730;8.006;2023-04-07T05:00:25;99954.63;;;10.44;88.09
5522;BME280;2783;48.730;8.006;2023-04-07T05:02:50;99954.72;;;10.41;87.59
5522;BME280;2783;48.730;8.006;2023-04-07T05:05:15;99953.00;;;10.40;88.34
5522;BME280;2783;48.730;8.006;2023-04-07T05:07:41;99951.25;;;10.39;88.76
5522;BME280;2783;48.730;8.006;2023-04-07T05:10:06;99952.13;;;10.40;89.52
5522;BME280;2783;48.730;8.006;2023-04-07T05:12:32;99951.25;;;10.39;90.08
5522;BME280;2783;48.730;8.006;2023-04-07T05:14:57;99956.72;;;10.35;90.39
5522;BME280;2783;48.730;8.006;2023-04-07T05:17:22;99948.75;;;10.35;90.87
5522;BME280;2783;48.730;8.006;2023-04-07T05:19:47;99941.69;;;10.34;91.19
5522;BME280;2783;48.730;8.006;2023-04-07T05:22:13;99946.81;;;10.40;91.16
5522;BME280;2783;48.730;8.006;2023-04-07T05:24:38;99945.75;;;10.45;91.32
5522;BME280;2783;48.730;8.006;2023-04-07T05:27:03;99939.31;;;10.51;90.21
5522;BME280;2783;48.730;8.006;2023-04-07T05:29:28;99948.06;;;10.54;91.42
5522;BME280;2783;48.730;8.006;2023-04-07T05:31:54;99945.13;;;10.63;91.07
5522;BME280;2783;48.730;8.006;2023-04-07T05:34:19;99945.78;;;10.70;90.43
5522;BME280;2783;48.730;8.006;2023-04-07T05:36:44;99942.00;;;10.77;90.19
5522;BME280;2783;48.730;8.006;2023-04-07T05:39:10;99946.09;;;10.86;89.19
5522;BME280;2783;48.730;8.006;2023-04-07T05:41:35;99946.78;;;10.92;89.34
5522;BME280;2783;48.730;8.006;2023-04-07T05:44:01;99958.09;;;10.99;88.89
5522;BME280;2783;48.730;8.006;2023-04-07T05:46:26;99950.78;;;11.04;88.04
5522;BME280;2783;48.730;8.006;2023-04-07T05:48:53;99957.75;;;11.08;88.27
5522;BME280;2783;48.730;8.006;2023-04-07T05:51:18;99955.78;;;11.13;87.97
5522;BME280;2783;48.730;8.006;2023-04-07T05:53:43;99962.84;;;11.14;87.96
5522;BME280;2783;48.730;8.006;2023-04-07T05:56:08;99958.41;;;11.14;88.33
5522;BME280;2783;48.730;8.006;2023-04-07T05:58:34;99953.13;;;11.13;87.99
5522;BME280;2783;48.730;8.006;2023-04-07T06:00:59;99947.81;;;11.13;87.84
5522;BME280;2783;48.730;8.006;2023-04-07T06:03:24;99952.19;;;11.14;88.57
5522;BME280;2783;48.730;8.006;2023-04-07T06:05:50;99948.50;;;11.18;88.54
5522;BME280;2783;48.730;8.006;2023-04-07T06:08:15;99954.72;;;11.18;87.66
5522;BME280;2783;48.730;8.006;2023-04-07T06:10:40;99942.19;;;11.20;86.97
5522;BME280;2783;48.730;8.006;2023-04-07T06:13:06;99951.75;;;11.26;87.13
5522;BME280;2783;48.730;8.006;2023-04-07T06:15:31;99951.59;;;11.30;86.17
5522;BME280;2783;48.730;8.006;2023-04-07T06:17:57;99948.16;;;11.27;86.13
5522;BME280;2783;48.730;8.006;2023-04-07T06:20:22;99949.69;;;11.34;85.51
5522;BME280;2783;48.730;8.006;2023-04-07T06:22:48;99957.63;;;11.35;85.35
5522;BME280;2783;48.730;8.006;2023-04-07T06:25:13;99949.47;;;11.40;85.58
5522;BME280;2783;48.730;8.006;2023-04-07T06:27:38;99954.63;;;11.44;85.79
5522;BME280;2783;48.730;8.006;2023-04-07T06:30:04;99958.75;;;11.53;85.59
5522;BME280;2783;48.730;8.006;2023-04-07T06:32:29;99954.81;;;11.63;85.48
5522;BME280;2783;48.730;8.006;2023-04-07T06:34:55;99952.69;;;11.72;85.25
5522;BME280;2783;48.730;8.006;2023-04-07T06:37:21;99952.25;;;11.83;85.78
5522;BME280;2783;48.730;8.006;2023-04-07T06:39:48;99956.19;;;11.96;84.56
5522;BME280;2783;48.730;8.006;2023-04-07T06:42:14;99954.13;;;12.04;84.46
5522;BME280;2783;48.730;8.006;2023-04-07T06:44:39;99950.94;;;12.16;83.44
5522;BME280;2783;48.730;8.006;2023-04-07T06:47:05;99955.59;;;12.33;82.22
5522;BME280;2783;48.730;8.006;2023-04-07T06:49:30;99954.91;;;12.49;80.25
5522;BME280;2783;48.730;8.006;2023-04-07T06:51:55;99958.53;;;12.48;76.43
5522;BME280;2783;48.730;8.006;2023-04-07T06:54:21;99956.53;;;12.53;76.05
5522;BME280;2783;48.730;8.006;2023-04-07T06:56:46;99960.56;;;12.63;76.20
5522;BME280;2783;48.730;8.006;2023-04-07T06:59:11;99959.25;;;12.73;75.96
5522;BME280;2783;48.730;8.006;2023-04-07T07:01:36;99959.59;;;12.86;76.16
5522;BME280;2783;48.730;8.006;2023-04-07T07:04:02;99959.00;;;12.99;76.38
5522;BME280;2783;48.730;8.006;2023-04-07T07:06:27;99960.47;;;13.06;75.91
5522;BME280;2783;48.730;8.006;2023-04-07T07:08:53;99967.50;;;13.09;75.84
5522;BME280;2783;48.730;8.006;2023-04-07T07:11:18;99972.25;;;13.02;75.34
5522;BME280;2783;48.730;8.006;2023-04-07T07:13:43;99982.34;;;12.94;76.27
5522;BME280;2783;48.730;8.006;2023-04-07T07:16:09;99982.06;;;13.00;76.21
5522;BME280;2783;48.730;8.006;2023-04-07T07:18:36;99980.94;;;13.07;76.04
5522;BME280;2783;48.730;8.006;2023-04-07T07:21:02;99983.31;;;13.13;76.26
5522;BME280;2783;48.730;8.006;2023-04-07T07:23:27;99977.31;;;13.08;76.72
5522;BME280;2783;48.730;8.006;2023-04-07T07:25:52;99985.06;;;13.14;76.78
5522;BME280;2783;48.730;8.006;2023-04-07T07:28:17;99986.78;;;13.15;76.46
5522;BME280;2783;48.730;8.006;2023-04-07T07:30:43;99986.06;;;13.12;76.87
5522;BME280;2783;48.730;8.006;2023-04-07T07:33:08;99990.53;;;13.11;77.11
5522;BME280;2783;48.730;8.006;2023-04-07T07:35:34;99985.25;;;13.10;77.01
5522;BME280;2783;48.730;8.006;2023-04-07T07:38:01;99994.88;;;13.14;78.06
5522;BME280;2783;48.730;8.006;2023-04-07T07:40:26;99988.06;;;13.07;78.66
5522;BME280;2783;48.730;8.006;2023-04-07T07:42:51;99986.34;;;13.06;79.05
5522;BME280;2783;48.730;8.006;2023-04-07T07:45:17;99990.94;;;13.02;79.06
5522;BME280;2783;48.730;8.006;2023-04-07T07:47:43;99990.06;;;13.02;80.21
5522;BME280;2783;48.730;8.006;2023-04-07T07:50:09;99996.47;;;12.96;81.90
5522;BME280;2783;48.730;8.006;2023-04-07T07:52:35;99997.56;;;12.92;83.04
5522;BME280;2783;48.730;8.006;2023-04-07T07:55:00;99991.69;;;12.84;84.50
5522;BME280;2783;48.730;8.006;2023-04-07T07:57:25;100002.09;;;12.90;84.98
5522;BME280;2783;48.730;8.006;2023-04-07T07:59:51;99999.75;;;13.04;85.51
5522;BME280;2783;48.730;8.006;2023-04-07T08:02:17;100001.88;;;13.16;84.89
5522;BME280;2783;48.730;8.006;2023-04-07T08:04:42;100008.31;;;13.12;83.14
5522;BME280;2783;48.730;8.006;2023-04-07T08:07:07;100013.88;;;13.06;84.34
5522;BME280;2783;48.730;8.006;2023-04-07T08:09:33;100014.31;;;13.38;84.52
5522;BME280;2783;48.730;8.006;2023-04-07T08:11:58;100015.91;;;13.42;81.98
5522;BME280;2783;48.730;8.006;2023-04-07T08:14:23;100017.91;;;13.57;81.17
5522;BME280;2783;48.730;8.006;2023-04-07T08:16:48;100020.38;;;13.61;79.53
5522;BME280;2783;48.730;8.006;2023-04-07T08:19:14;100027.72;;;13.95;78.76
5522;BME280;2783;48.730;8.006;2023-04-07T08:21:39;100027.03;;;14.10;78.98
5522;BME280;2783;48.730;8.006;2023-04-07T08:24:05;100023.13;;;14.35;78.96
5522;BME280;2783;48.730;8.006;2023-04-07T08:26:31;100024.06;;;14.53;77.25
5522;BME280;2783;48.730;8.006;2023-04-07T08:28:56;100027.75;;;14.69;76.44
5522;BME280;2783;48.730;8.006;2023-04-07T08:31:22;100035.88;;;14.49;76.89
5522;BME280;2783;48.730;8.006;2023-04-07T08:33:47;100039.63;;;14.45;78.18
5522;BME280;2783;48.730;8.006;2023-04-07T08:36:17;100035.56;;;14.55;78.20
5522;BME280;2783;48.730;8.006;2023-04-07T08:38:42;100030.69;;;14.63;77.39
5522;BME280;2783;48.730;8.006;2023-04-07T08:41:12;100039.34;;;14.51;75.95
5522;BME280;2783;48.730;8.006;2023-04-07T08:43:38;100042.44;;;14.61;76.88
5522;BME280;2783;48.730;8.006;2023-04-07T08:46:03;100036.63;;;14.70;75.98
5522;BME280;2783;48.730;8.006;2023-04-07T08:48:29;100038.94;;;14.77;75.94
5522;BME280;2783;48.730;8.006;2023-04-07T08:50:58;100038.28;;;14.72;71.94
5522;BME280;2783;48.730;8.006;2023-04-07T08:53:27;100045.69;;;14.67;73.06
5522;BME280;2783;48.730;8.006;2023-04-07T08:55:54;100049.38;;;15.00;73.24
5522;BME280;2783;48.730;8.006;2023-04-07T08:58:20;100053.63;;;14.87;71.78
5522;BME280;2783;48.730;8.006;2023-04-07T09:00:45;100051.09;;;14.84;71.68
5522;BME280;2783;48.730;8.006;2023-04-07T09:03:13;100057.63;;;14.23;72.06
5522;BME280;2783;48.730;8.006;2023-04-07T09:05:38;100057.34;;;14.29;72.86
5522;BME280;2783;48.730;8.006;2023-04-07T09:08:03;100056.13;;;14.55;74.12
5522;BME280;2783;48.730;8.006;2023-04-07T09:10:29;100055.81;;;14.79;73.21
5522;BME280;2783;48.730;8.006;2023-04-07T09:12:56;100056.53;;;15.00;71.84
5522;BME280;2783;48.730;8.006;2023-04-07T09:15:22;100058.34;;;14.99;72.50
5522;BME280;2783;48.730;8.006;2023-04-07T09:17:47;100063.09;;;15.11;71.42
5522;BME280;2783;48.730;8.006;2023-04-07T09:20:13;100061.25;;;15.30;70.78
5522;BME280;2783;48.730;8.006;2023-04-07T09:27:38;100061.88;;;15.69;70.60
5522;BME280;2783;48.730;8.006;2023-04-07T09:30:13;100064.69;;;15.83;67.08
5522;BME280;2783;48.730;8.006;2023-04-07T09:32:39;100067.81;;;15.92;65.69
5522;BME280;2783;48.730;8.006;2023-04-07T09:35:05;100057.63;;;16.31;66.50
5522;BME280;2783;48.730;8.006;2023-04-07T09:37:30;100060.72;;;16.23;66.67
5522;BME280;2783;48.730;8.006;2023-04-07T09:39:56;100053.69;;;16.69;65.90
5522;BME280;2783;48.730;8.006;2023-04-07T09:42:21;100056.88;;;17.06;65.00
5522;BME280;2783;48.730;8.006;2023-04-07T09:44:47;100061.47;;;17.34;63.40
5522;BME280;2783;48.730;8.006;2023-04-07T09:47:12;100057.28;;;17.44;62.97
5522;BME280;2783;48.730;8.006;2023-04-07T09:49:48;100058.34;;;17.71;62.12
5522;BME280;2783;48.730;8.006;2023-04-07T09:52:14;100059.50;;;17.67;60.58
5522;BME280;2783;48.730;8.006;2023-04-07T09:54:41;100056.66;;;17.98;60.48
5522;BME280;2783;48.730;8.006;2023-04-07T09:57:07;100055.00;;;18.38;58.22
5522;BME280;2783;48.730;8.006;2023-04-07T09:59:33;100051.44;;;18.37;58.23
5522;BME280;2783;48.730;8.006;2023-04-07T10:01:59;100048.56;;;18.12;57.25
5522;BME280;2783;48.730;8.006;2023-04-07T10:04:25;100052.44;;;18.08;58.16
5522;BME280;2783;48.730;8.006;2023-04-07T10:06:52;100048.66;;;17.97;59.53
5522;BME280;2783;48.730;8.006;2023-04-07T10:09:18;100054.72;;;18.28;59.94
5522;BME280;2783;48.730;8.006;2023-04-07T10:11:43;100047.03;;;18.51;57.95
5522;BME280;2783;48.730;8.006;2023-04-07T10:14:10;100048.28;;;18.17;57.20
5522;BME280;2783;48.730;8.006;2023-04-07T10:16:38;100057.19;;;17.75;58.09
5522;BME280;2783;48.730;8.006;2023-04-07T10:19:04;100050.44;;;17.68;57.71
5522;BME280;2783;48.730;8.006;2023-04-07T10:21:30;100048.53;;;17.70;58.38
5522;BME280;2783;48.730;8.006;2023-04-07T10:26:22;100038.72;;;17.55;57.34
5522;BME280;2783;48.730;8.006;2023-04-07T10:28:51;100051.06;;;17.87;56.94
5522;BME280;2783;48.730;8.006;2023-04-07T10:31:17;100049.41;;;17.41;54.51
5522;BME280;2783;48.730;8.006;2023-04-07T10:36:10;100046.47;;;18.03;53.98
5522;BME280;2783;48.730;8.006;2023-04-07T10:38:36;100042.50;;;18.23;53.32
5522;BME280;2783;48.730;8.006;2023-04-07T10:41:30;100043.41;;;18.52;53.14
5522;BME280;2783;48.730;8.006;2023-04-07T10:43:46;100046.34;;;18.19;53.15
5522;BME280;2783;48.730;8.006;2023-04-07T10:46:12;100038.75;;;18.54;53.27
5522;BME280;2783;48.730;8.006;2023-04-07T10:48:37;100049.25;;;18.85;52.47
5522;BME280;2783;48.730;8.006;2023-04-07T10:53:32;100054.41;;;19.67;51.25
5522;BME280;2783;48.730;8.006;2023-04-07T10:56:01;100047.31;;;20.17;49.16
5522;BME280;2783;48.730;8.006;2023-04-07T10:58:27;100050.94;;;20.03;46.28
5522;BME280;2783;48.730;8.006;2023-04-07T11:03:39;100039.53;;;21.10;47.59
5522;BME280;2783;48.730;8.006;2023-04-07T11:06:06;100043.41;;;21.53;46.53
5522;BME280;2783;48.730;8.006;2023-04-07T11:10:57;100043.16;;;21.21;43.09
5522;BME280;2783;48.730;8.006;2023-04-07T11:13:23;100035.03;;;20.61;43.95
5522;BME280;2783;48.730;8.006;2023-04-07T11:15:49;100042.56;;;20.20;45.59
5522;BME280;2783;48.730;8.006;2023-04-07T11:18:16;100041.16;;;20.27;44.67
5522;BME280;2783;48.730;8.006;2023-04-07T11:20:42;100038.53;;;20.51;43.98
5522;BME280;2783;48.730;8.006;2023-04-07T11:23:08;100040.44;;;20.61;43.96
5522;BME280;2783;48.730;8.006;2023-04-07T11:25:34;100045.25;;;20.20;44.15
5522;BME280;2783;48.730;8.006;2023-04-07T11:27:59;100039.31;;;20.15;45.58
5522;BME280;2783;48.730;8.006;2023-04-07T11:30:25;100050.31;;;20.12;47.13
5522;BME280;2783;48.730;8.006;2023-04-07T11:32:50;100044.25;;;19.71;46.96
5522;BME280;2783;48.730;8.006;2023-04-07T11:35:16;100045.13;;;19.84;47.35
5522;BME280;2783;48.730;8.006;2023-04-07T11:37:41;100027.63;;;20.02;46.16
5522;BME280;2783;48.730;8.006;2023-04-07T11:40:06;100025.44;;;20.57;44.01
5522;BME280;2783;48.730;8.006;2023-04-07T11:44:57;100045.38;;;20.67;43.76
5522;BME280;2783;48.730;8.006;2023-04-07T11:47:32;100039.53;;;20.25;45.01
5522;BME280;2783;48.730;8.006;2023-04-07T11:49:57;100048.16;;;20.30;45.88
5522;BME280;2783;48.730;8.006;2023-04-07T11:52:23;100049.47;;;19.99;44.66
5522;BME280;2783;48.730;8.006;2023-04-07T11:54:49;100055.16;;;19.82;47.06
5522;BME280;2783;48.730;8.006;2023-04-07T11:57:23;100051.97;;;19.38;47.43
5522;BME280;2783;48.730;8.006;2023-04-07T11:59:48;100060.31;;;18.94;47.53
5522;BME280;2783;48.730;8.006;2023-04-07T12:02:29;100052.13;;;18.96;47.42
5522;BME280;2783;48.730;8.006;2023-04-07T12:04:55;100051.09;;;18.84;49.00
5522;BME280;2783;48.730;8.006;2023-04-07T12:07:21;100054.28;;;18.77;48.91
5522;BME280;2783;48.730;8.006;2023-04-07T12:09:46;100046.81;;;18.68;49.31
5522;BME280;2783;48.730;8.006;2023-04-07T12:12:12;100052.69;;;18.60;50.06
5522;BME280;2783;48.730;8.006;2023-04-07T12:14:37;100051.25;;;19.22;48.23
5522;BME280;2783;48.730;8.006;2023-04-07T12:17:02;100047.41;;;19.65;45.85
5522;BME280;2783;48.730;8.006;2023-04-07T12:19:28;100049.50;;;20.24;46.66
5522;BME280;2783;48.730;8.006;2023-04-07T12:21:54;100048.69;;;20.47;45.16
5522;BME280;2783;48.730;8.006;2023-04-07T12:24:20;100052.56;;;20.43;45.77
5522;BME280;2783;48.730;8.006;2023-04-07T12:26:46;100053.41;;;19.56;45.54
5522;BME280;2783;48.730;8.006;2023-04-07T12:29:12;100059.38;;;19.86;45.63
5522;BME280;2783;48.730;8.006;2023-04-07T12:31:37;100054.31;;;20.32;47.00
5522;BME280;2783;48.730;8.006;2023-04-07T12:34:02;100049.56;;;20.35;44.96
5522;BME280;2783;48.730;8.006;2023-04-07T12:36:28;100052.16;;;20.85;45.17
5522;BME280;2783;48.730;8.006;2023-04-07T12:38:54;100052.25;;;21.20;44.65
5522;BME280;2783;48.730;8.006;2023-04-07T12:41:19;100057.78;;;20.82;43.37
5522;BME280;2783;48.730;8.006;2023-04-07T12:43:44;100056.94;;;20.69;44.70
5522;BME280;2783;48.730;8.006;2023-04-07T12:46:10;100053.78;;;19.77;44.66
5522;BME280;2783;48.730;8.006;2023-04-07T12:48:35;100057.09;;;19.55;45.40
5522;BME280;2783;48.730;8.006;2023-04-07T12:51:00;100059.94;;;19.13;46.70
5522;BME280;2783;48.730;8.006;2023-04-07T12:53:26;100053.63;;;19.26;48.50
5522;BME280;2783;48.730;8.006;2023-04-07T12:55:51;100056.44;;;19.25;46.60
5522;BME280;2783;48.730;8.006;2023-04-07T12:58:17;100057.41;;;18.97;46.91
5522;BME280;2783;48.730;8.006;2023-04-07T13:00:43;100065.19;;;19.02;47.73
5522;BME280;2783;48.730;8.006;2023-04-07T13:03:08;100068.00;;;19.00;45.56
5522;BME280;2783;48.730;8.006;2023-04-07T13:05:34;100059.78;;;19.02;47.79
5522;BME280;2783;48.730;8.006;2023-04-07T13:07:59;100058.31;;;19.76;46.03
5522;BME280;2783;48.730;8.006;2023-04-07T13:10:25;100064.97;;;19.58;44.58
5522;BME280;2783;48.730;8.006;2023-04-07T13:12:51;100058.91;;;19.01;45.63
5522;BME280;2783;48.730;8.006;2023-04-07T13:15:17;100060.56;;;18.77;47.10
5522;BME280;2783;48.730;8.006;2023-04-07T13:17:42;100054.28;;;18.77;46.40
5522;BME280;2783;48.730;8.006;2023-04-07T13:20:08;100060.50;;;18.36;48.05
5522;BME280;2783;48.730;8.006;2023-04-07T13:22:33;100057.78;;;18.22;48.21
5522;BME280;2783;48.730;8.006;2023-04-07T13:24:58;100043.88;;;18.30;47.18
5522;BME280;2783;48.730;8.006;2023-04-07T13:27:24;100013.75;;;18.09;45.85
5522;BME280;2783;48.730;8.006;2023-04-07T13:29:52;100045.31;;;18.21;47.73
5522;BME280;2783;48.730;8.006;2023-04-07T13:32:20;100041.84;;;18.19;48.66
5522;BME280;2783;48.730;8.006;2023-04-07T13:34:46;100056.84;;;18.09;49.27
5522;BME280;2783;48.730;8.006;2023-04-07T13:37:11;100049.63;;;18.24;47.60